sensor_id;sensor_type;location;lat;lon;timestamp;P1;durP1;ratioP1;P2;durP2;ratioP2
5710;SDS011;61291;52.524;13.422;2024-02-14T00:00:05;71.13;;;65.50;;
5710;SDS011;61291;52.524;13.422;2024-02-14T00:02:34;72.47;;;66.97;;
5710;SDS011;61291;52.524;13.422;2024-02-14T00:05:01;73.53;;;67.93;;
5710;SDS011;61291;52.524;13.422;2024-02-14T00:07:28;71.60;;;65.93;;
5710;SDS011;61291;52.524;13.422;2024-02-14T00:09:53;60.10;;;55.13;;
5710;SDS011;61291;52.524;13.422;2024-02-14T00:12:19;71.03;;;65.73;;
5710;SDS011;61291;52.524;13.422;2024-02-14T00:14:44;71.73;;;66.40;;
5710;SDS011;61291;52.524;13.422;2024-02-14T00:17:10;73.67;;;68.47;;
5710;SDS011;61291;52.524;13.422;2024-02-14T00:19:35;74.00;;;68.70;;
5710;SDS011;61291;52.524;13.422;2024-02-14T00:22:01;69.80;;;64.40;;
5710;SDS011;61291;52.524;13.422;2024-02-14T00:24:26;75.00;;;69.10;;
5710;SDS011;61291;52.524;13.422;2024-02-14T00:26:54;72.03;;;66.70;;
5710;SDS011;61291;52.524;13.422;2024-02-14T00:29:21;73.43;;;67.60;;
5710;SDS011;61291;52.524;13.422;2024-02-14T00:31:47;73.50;;;67.47;;
5710;SDS011;61291;52.524;13.422;2024-02-14T00:34:13;72.13;;;66.43;;
5710;SDS011;61291;52.524;13.422;2024-02-14T00:36:38;70.87;;;65.57;;
5710;SDS011;61291;52.524;13.422;2024-02-14T00:39:04;63.38;;;57.88;;
5710;SDS011;61291;52.524;13.422;2024-02-14T00:41:29;73.70;;;68.20;;
5710;SDS011;61291;52.524;13.422;2024-02-14T00:43:55;73.00;;;67.47;;
5710;SDS011;61291;52.524;13.422;2024-02-14T00:46:21;76.10;;;69.67;;
5710;SDS011;61291;52.524;13.422;2024-02-14T00:48:47;79.27;;;72.57;;
5710;SDS011;61291;52.524;13.422;2024-02-14T00:51:12;70.20;;;64.57;;
5710;SDS011;61291;52.524;13.422;2024-02-14T00:53:38;74.53;;;69.00;;
5710;SDS011;61291;52.524;13.422;2024-02-14T00:56:03;73.20;;;67.10;;
5710;SDS011;61291;52.524;13.422;2024-02-14T00:58:29;77.90;;;71.83;;
5710;SDS011;61291;52.524;13.422;2024-02-14T01:00:55;77.80;;;72.03;;
5710;SDS011;61291;52.524;13.422;2024-02-14T01:03:20;75.70;;;69.77;;
5710;SDS011;61291;52.524;13.422;2024-02-14T01:05:46;77.63;;;71.43;;
5710;SDS011;61291;52.524;13.422;2024-02-14T01:08:12;75.40;;;69.60;;
5710;SDS011;61291;52.524;13.422;2024-02-14T01:10:38;78.27;;;71.90;;
5710;SDS011;61291;52.524;13.422;2024-02-14T01:13:04;78.47;;;72.67;;
5710;SDS011;61291;52.524;13.422;2024-02-14T01:15:30;79.03;;;73.13;;
5710;SDS011;61291;52.524;13.422;2024-02-14T01:17:55;77.73;;;71.67;;
5710;SDS011;61291;52.524;13.422;2024-02-14T01:20:20;77.90;;;71.80;;
5710;SDS011;61291;52.524;13.422;2024-02-14T01:22:46;75.93;;;70.53;;
5710;SDS011;61291;52.524;13.422;2024-02-14T01:25:12;77.53;;;71.03;;
5710;SDS011;61291;52.524;13.422;2024-02-14T01:27:39;74.90;;;69.00;;
5710;SDS011;61291;52.524;13.422;2024-02-14T01:30:06;75.73;;;69.93;;
5710;SDS011;61291;52.524;13.422;2024-02-14T01:32:32;76.17;;;69.87;;
5710;SDS011;61291;52.524;13.422;2024-02-14T01:34:57;75.87;;;70.27;;
5710;SDS011;61291;52.524;13.422;2024-02-14T01:37:22;78.83;;;72.53;;
5710;SDS011;61291;52.524;13.422;2024-02-14T01:39:48;77.53;;;70.93;;
5710;SDS011;61291;52.524;13.422;2024-02-14T01:42:13;77.00;;;71.03;;
5710;SDS011;61291;52.524;13.422;2024-02-14T01:44:39;80.10;;;73.97;;
5710;SDS011;61291;52.524;13.422;2024-02-14T01:47:05;76.47;;;70.70;;
5710;SDS011;61291;52.524;13.422;2024-02-14T01:49:31;76.83;;;70.83;;
5710;SDS011;61291;52.524;13.422;2024-02-14T01:51:59;78.77;;;72.77;;
5710;SDS011;61291;52.524;13.422;2024-02-14T01:54:28;77.90;;;72.07;;
5710;SDS011;61291;52.524;13.422;2024-02-14T01:56:54;78.90;;;73.03;;
5710;SDS011;61291;52.524;13.422;2024-02-14T01:59:23;74.27;;;68.33;;
5710;SDS011;61291;52.524;13.422;2024-02-14T02:01:49;78.43;;;73.07;;
5710;SDS011;61291;52.524;13.422;2024-02-14T02:04:16;77.40;;;72.07;;
5710;SDS011;61291;52.524;13.422;2024-02-14T02:06:43;77.13;;;71.70;;
5710;SDS011;61291;52.524;13.422;2024-02-14T02:09:08;76.97;;;71.57;;
5710;SDS011;61291;52.524;13.422;2024-02-14T02:11:46;79.20;;;73.00;;
5710;SDS011;61291;52.524;13.422;2024-02-14T02:14:13;78.00;;;72.20;;
5710;SDS011;61291;52.524;13.422;2024-02-14T02:16:39;77.90;;;71.77;;
5710;SDS011;61291;52.524;13.422;2024-02-14T02:19:04;75.40;;;70.00;;
5710;SDS011;61291;52.524;13.422;2024-02-14T02:21:33;79.93;;;73.43;;
5710;SDS011;61291;52.524;13.422;2024-02-14T02:23:59;78.50;;;72.80;;
5710;SDS011;61291;52.524;13.422;2024-02-14T02:26:25;74.57;;;69.07;;
5710;SDS011;61291;52.524;13.422;2024-02-14T02:28:51;78.33;;;71.20;;
5710;SDS011;61291;52.524;13.422;2024-02-14T02:31:16;78.60;;;72.17;;
5710;SDS011;61291;52.524;13.422;2024-02-14T02:33:42;75.70;;;69.80;;
5710;SDS011;61291;52.524;13.422;2024-02-14T02:36:08;77.27;;;71.63;;
5710;SDS011;61291;52.524;13.422;2024-02-14T02:38:34;79.43;;;72.60;;
5710;SDS011;61291;52.524;13.422;2024-02-14T02:41:01;74.03;;;68.57;;
5710;SDS011;61291;52.524;13.422;2024-02-14T02:43:28;77.40;;;71.40;;
5710;SDS011;61291;52.524;13.422;2024-02-14T02:45:53;76.20;;;70.33;;
5710;SDS011;61291;52.524;13.422;2024-02-14T02:48:19;76.70;;;70.97;;
5710;SDS011;61291;52.524;13.422;2024-02-14T02:50:48;74.90;;;69.20;;
5710;SDS011;61291;52.524;13.422;2024-02-14T02:53:14;75.00;;;69.50;;
5710;SDS011;61291;52.524;13.422;2024-02-14T02:55:40;71.93;;;66.33;;
5710;SDS011;61291;52.524;13.422;2024-02-14T02:58:06;74.07;;;68.90;;
5710;SDS011;61291;52.524;13.422;2024-02-14T03:00:32;75.67;;;70.27;;
5710;SDS011;61291;52.524;13.422;2024-02-14T03:02:58;80.70;;;73.10;;
5710;SDS011;61291;52.524;13.422;2024-02-14T03:05:23;74.90;;;69.70;;
5710;SDS011;61291;52.524;13.422;2024-02-14T03:07:49;73.97;;;68.77;;
5710;SDS011;61291;52.524;13.422;2024-02-14T03:10:15;74.83;;;69.60;;
5710;SDS011;61291;52.524;13.422;2024-02-14T03:12:49;79.27;;;73.67;;
5710;SDS011;61291;52.524;13.422;2024-02-14T03:15:14;76.03;;;70.73;;
5710;SDS011;61291;52.524;13.422;2024-02-14T03:17:40;61.83;;;57.53;;
5710;SDS011;61291;52.524;13.422;2024-02-14T03:20:07;77.37;;;71.70;;
5710;SDS011;61291;52.524;13.422;2024-02-14T03:22:35;73.47;;;68.27;;
5710;SDS011;61291;52.524;13.422;2024-02-14T03:25:01;75.10;;;69.70;;
5710;SDS011;61291;52.524;13.422;2024-02-14T03:27:27;75.27;;;69.87;;
5710;SDS011;61291;52.524;13.422;2024-02-14T03:29:52;73.37;;;67.60;;
5710;SDS011;61291;52.524;13.422;2024-02-14T03:32:20;71.23;;;65.87;;
5710;SDS011;61291;52.524;13.422;2024-02-14T03:34:45;72.60;;;67.67;;
5710;SDS011;61291;52.524;13.422;2024-02-14T03:37:11;74.77;;;69.17;;
5710;SDS011;61291;52.524;13.422;2024-02-14T03:39:36;75.03;;;69.80;;
5710;SDS011;61291;52.524;13.422;2024-02-14T03:42:02;72.37;;;66.93;;
5710;SDS011;61291;52.524;13.422;2024-02-14T03:44:32;73.67;;;68.53;;
5710;SDS011;61291;52.524;13.422;2024-02-14T03:46:58;72.73;;;67.40;;
5710;SDS011;61291;52.524;13.422;2024-02-14T03:49:23;73.53;;;67.83;;
5710;SDS011;61291;52.524;13.422;2024-02-14T03:51:50;75.37;;;70.07;;
5710;SDS011;61291;52.524;13.422;2024-02-14T03:54:19;73.57;;;68.10;;
5710;SDS011;61291;52.524;13.422;2024-02-14T03:56:45;73.80;;;68.60;;
5710;SDS011;61291;52.524;13.422;2024-02-14T03:59:10;71.10;;;66.10;;
5710;SDS011;61291;52.524;13.422;2024-02-14T04:01:36;72.83;;;67.60;;
5710;SDS011;61291;52.524;13.422;2024-02-14T04:04:01;70.63;;;64.83;;
5710;SDS011;61291;52.524;13.422;2024-02-14T04:06:27;69.13;;;63.77;;
5710;SDS011;61291;52.524;13.422;2024-02-14T04:08:56;65.83;;;61.30;;
5710;SDS011;61291;52.524;13.422;2024-02-14T04:11:22;70.77;;;64.13;;
5710;SDS011;61291;52.524;13.422;2024-02-14T04:13:47;69.57;;;64.13;;
5710;SDS011;61291;52.524;13.422;2024-02-14T04:16:13;67.50;;;62.40;;
5710;SDS011;61291;52.524;13.422;2024-02-14T04:18:38;69.23;;;64.13;;
5710;SDS011;61291;52.524;13.422;2024-02-14T04:21:07;70.30;;;65.00;;
5710;SDS011;61291;52.524;13.422;2024-02-14T04:23:32;68.97;;;63.87;;
5710;SDS011;61291;52.524;13.422;2024-02-14T04:25:58;69.63;;;64.53;;
5710;SDS011;61291;52.524;13.422;2024-02-14T04:28:23;72.13;;;67.03;;
5710;SDS011;61291;52.524;13.422;2024-02-14T04:30:49;68.53;;;62.80;;
5710;SDS011;61291;52.524;13.422;2024-02-14T04:33:14;70.57;;;64.87;;
5710;SDS011;61291;52.524;13.422;2024-02-14T04:35:40;69.17;;;63.87;;
5710;SDS011;61291;52.524;13.422;2024-02-14T04:38:05;73.67;;;67.70;;
5710;SDS011;61291;52.524;13.422;2024-02-14T04:40:31;69.30;;;64.40;;
5710;SDS011;61291;52.524;13.422;2024-02-14T04:42:56;73.77;;;68.30;;
5710;SDS011;61291;52.524;13.422;2024-02-14T04:45:22;71.37;;;66.37;;
5710;SDS011;61291;52.524;13.422;2024-02-14T04:47:47;69.07;;;64.00;;
5710;SDS011;61291;52.524;13.422;2024-02-14T04:50:13;69.93;;;64.97;;
5710;SDS011;61291;52.524;13.422;2024-02-14T04:52:39;71.37;;;66.10;;
5710;SDS011;61291;52.524;13.422;2024-02-14T04:55:04;67.67;;;62.87;;
5710;SDS011;61291;52.524;13.422;2024-02-14T04:57:30;69.53;;;63.53;;
5710;SDS011;61291;52.524;13.422;2024-02-14T04:59:56;69.53;;;64.20;;
5710;SDS011;61291;52.524;13.422;2024-02-14T05:02:22;65.40;;;60.40;;
5710;SDS011;61291;52.524;13.422;2024-02-14T05:04:47;72.07;;;66.53;;
5710;SDS011;61291;52.524;13.422;2024-02-14T05:07:13;65.50;;;60.40;;
5710;SDS011;61291;52.524;13.422;2024-02-14T05:09:38;65.57;;;60.63;;
5710;SDS011;61291;52.524;13.422;2024-02-14T05:12:04;70.07;;;63.23;;
5710;SDS011;61291;52.524;13.422;2024-02-14T05:14:31;66.93;;;61.90;;
5710;SDS011;61291;52.524;13.422;2024-02-14T05:16:57;68.37;;;63.57;;
5710;SDS011;61291;52.524;13.422;2024-02-14T05:19:22;71.43;;;66.00;;
5710;SDS011;61291;52.524;13.422;2024-02-14T05:21:48;71.63;;;66.40;;
5710;SDS011;61291;52.524;13.422;2024-02-14T05:24:14;70.67;;;65.40;;
5710;SDS011;61291;52.524;13.422;2024-02-14T05:26:39;75.20;;;69.37;;
5710;SDS011;61291;52.524;13.422;2024-02-14T05:29:05;74.40;;;68.73;;
5710;SDS011;61291;52.524;13.422;2024-02-14T05:31:42;69.97;;;65.07;;
5710;SDS011;61291;52.524;13.422;2024-02-14T05:34:09;72.07;;;66.77;;
5710;SDS011;61291;52.524;13.422;2024-02-14T05:36:35;69.53;;;64.33;;
5710;SDS011;61291;52.524;13.422;2024-02-14T05:39:01;71.13;;;65.63;;
5710;SDS011;61291;52.524;13.422;2024-02-14T05:41:27;68.20;;;63.30;;
5710;SDS011;61291;52.524;13.422;2024-02-14T05:43:53;67.97;;;62.20;;
5710;SDS011;61291;52.524;13.422;2024-02-14T05:46:18;66.47;;;61.60;;
5710;SDS011;61291;52.524;13.422;2024-02-14T05:48:45;70.50;;;65.10;;
5710;SDS011;61291;52.524;13.422;2024-02-14T05:51:11;71.03;;;65.63;;
5710;SDS011;61291;52.524;13.422;2024-02-14T05:53:37;55.80;;;51.40;;
5710;SDS011;61291;52.524;13.422;2024-02-14T05:56:02;65.20;;;59.80;;
5710;SDS011;61291;52.524;13.422;2024-02-14T05:58:28;65.17;;;59.93;;
5710;SDS011;61291;52.524;13.422;2024-02-14T06:00:54;66.77;;;61.87;;
5710;SDS011;61291;52.524;13.422;2024-02-14T06:03:20;66.07;;;60.97;;
5710;SDS011;61291;52.524;13.422;2024-02-14T06:05:46;70.07;;;64.60;;
5710;SDS011;61291;52.524;13.422;2024-02-14T06:08:11;69.17;;;64.30;;
5710;SDS011;61291;52.524;13.422;2024-02-14T06:10:37;69.40;;;63.83;;
5710;SDS011;61291;52.524;13.422;2024-02-14T06:13:04;68.40;;;63.70;;
5710;SDS011;61291;52.524;13.422;2024-02-14T06:15:29;71.73;;;66.30;;
5710;SDS011;61291;52.524;13.422;2024-02-14T06:17:55;72.43;;;66.80;;
5710;SDS011;61291;52.524;13.422;2024-02-14T06:20:20;70.77;;;65.77;;
5710;SDS011;61291;52.524;13.422;2024-02-14T06:22:46;65.60;;;60.67;;
5710;SDS011;61291;52.524;13.422;2024-02-14T06:25:11;68.07;;;62.80;;
5710;SDS011;61291;52.524;13.422;2024-02-14T06:27:36;68.90;;;63.60;;
5710;SDS011;61291;52.524;13.422;2024-02-14T06:30:03;64.90;;;60.33;;
5710;SDS011;61291;52.524;13.422;2024-02-14T06:32:29;55.67;;;51.67;;
5710;SDS011;61291;52.524;13.422;2024-02-14T06:34:54;67.57;;;61.50;;
5710;SDS011;61291;52.524;13.422;2024-02-14T06:37:20;66.23;;;60.10;;
5710;SDS011;61291;52.524;13.422;2024-02-14T06:39:45;68.70;;;62.83;;
5710;SDS011;61291;52.524;13.422;2024-02-14T06:42:13;66.27;;;61.23;;
5710;SDS011;61291;52.524;13.422;2024-02-14T06:44:39;69.77;;;64.07;;
5710;SDS011;61291;52.524;13.422;2024-02-14T06:47:05;68.30;;;63.23;;
5710;SDS011;61291;52.524;13.422;2024-02-14T06:49:30;68.33;;;63.13;;
5710;SDS011;61291;52.524;13.422;2024-02-14T06:51:56;72.23;;;66.30;;
5710;SDS011;61291;52.524;13.422;2024-02-14T06:54:21;69.43;;;63.87;;
5710;SDS011;61291;52.524;13.422;2024-02-14T06:56:47;67.50;;;61.93;;
5710;SDS011;61291;52.524;13.422;2024-02-14T06:59:13;70.63;;;65.20;;
5710;SDS011;61291;52.524;13.422;2024-02-14T07:01:38;74.20;;;68.00;;
5710;SDS011;61291;52.524;13.422;2024-02-14T07:04:04;69.17;;;63.97;;
5710;SDS011;61291;52.524;13.422;2024-02-14T07:06:30;67.97;;;62.37;;
5710;SDS011;61291;52.524;13.422;2024-02-14T07:08:55;70.17;;;65.07;;
5710;SDS011;61291;52.524;13.422;2024-02-14T07:11:21;70.00;;;64.07;;
5710;SDS011;61291;52.524;13.422;2024-02-14T07:13:46;70.63;;;65.57;;
5710;SDS011;61291;52.524;13.422;2024-02-14T07:16:12;68.77;;;63.53;;
5710;SDS011;61291;52.524;13.422;2024-02-14T07:18:38;70.87;;;65.67;;
5710;SDS011;61291;52.524;13.422;2024-02-14T07:21:03;71.50;;;65.90;;
5710;SDS011;61291;52.524;13.422;2024-02-14T07:23:30;71.13;;;65.27;;
5710;SDS011;61291;52.524;13.422;2024-02-14T07:25:56;72.17;;;66.93;;
5710;SDS011;61291;52.524;13.422;2024-02-14T07:28:21;70.97;;;65.23;;
5710;SDS011;61291;52.524;13.422;2024-02-14T07:30:47;68.20;;;63.30;;
5710;SDS011;61291;52.524;13.422;2024-02-14T07:33:13;70.50;;;65.23;;
5710;SDS011;61291;52.524;13.422;2024-02-14T07:35:38;67.90;;;63.43;;
5710;SDS011;61291;52.524;13.422;2024-02-14T07:38:04;70.50;;;65.57;;
5710;SDS011;61291;52.524;13.422;2024-02-14T07:40:29;70.30;;;64.27;;
5710;SDS011;61291;52.524;13.422;2024-02-14T07:42:56;77.70;;;71.83;;
5710;SDS011;61291;52.524;13.422;2024-02-14T07:45:22;75.00;;;69.90;;
5710;SDS011;61291;52.524;13.422;2024-02-14T07:47:49;60.38;;;55.75;;
5710;SDS011;61291;52.524;13.422;2024-02-14T07:50:14;70.97;;;66.17;;
5710;SDS011;61291;52.524;13.422;2024-02-14T07:52:41;76.07;;;70.77;;
5710;SDS011;61291;52.524;13.422;2024-02-14T07:55:08;75.20;;;69.17;;
5710;SDS011;61291;52.524;13.422;2024-02-14T07:57:36;73.33;;;67.53;;
5710;SDS011;61291;52.524;13.422;2024-02-14T08:00:01;76.63;;;69.33;;
5710;SDS011;61291;52.524;13.422;2024-02-14T08:02:27;74.87;;;69.20;;
5710;SDS011;61291;52.524;13.422;2024-02-14T08:04:54;72.63;;;67.27;;
5710;SDS011;61291;52.524;13.422;2024-02-14T08:07:19;70.50;;;65.30;;
5710;SDS011;61291;52.524;13.422;2024-02-14T08:09:45;68.10;;;62.80;;
5710;SDS011;61291;52.524;13.422;2024-02-14T08:12:10;73.20;;;67.13;;
5710;SDS011;61291;52.524;13.422;2024-02-14T08:14:36;71.70;;;66.53;;
5710;SDS011;61291;52.524;13.422;2024-02-14T08:17:01;68.27;;;63.13;;
5710;SDS011;61291;52.524;13.422;2024-02-14T08:19:27;71.17;;;65.50;;
5710;SDS011;61291;52.524;13.422;2024-02-14T08:21:52;74.40;;;69.17;;
5710;SDS011;61291;52.524;13.422;2024-02-14T08:24:22;68.73;;;63.60;;
5710;SDS011;61291;52.524;13.422;2024-02-14T08:26:52;70.20;;;64.27;;
5710;SDS011;61291;52.524;13.422;2024-02-14T08:29:18;69.43;;;64.00;;
5710;SDS011;61291;52.524;13.422;2024-02-14T08:31:43;68.43;;;62.40;;
5710;SDS011;61291;52.524;13.422;2024-02-14T08:34:09;72.73;;;67.40;;
5710;SDS011;61291;52.524;13.422;2024-02-14T08:36:34;68.83;;;63.60;;
5710;SDS011;61291;52.524;13.422;2024-02-14T08:39:06;73.30;;;67.90;;
5710;SDS011;61291;52.524;13.422;2024-02-14T08:41:32;68.97;;;63.87;;
5710;SDS011;61291;52.524;13.422;2024-02-14T08:43:58;67.73;;;63.03;;
5710;SDS011;61291;52.524;13.422;2024-02-14T08:46:23;67.93;;;62.93;;
5710;SDS011;61291;52.524;13.422;2024-02-14T08:48:50;65.13;;;60.30;;
5710;SDS011;61291;52.524;13.422;2024-02-14T08:51:16;69.30;;;64.00;;
5710;SDS011;61291;52.524;13.422;2024-02-14T08:53:45;65.30;;;60.40;;
5710;SDS011;61291;52.524;13.422;2024-02-14T08:56:10;71.73;;;65.90;;
5710;SDS011;61291;52.524;13.422;2024-02-14T08:58:36;67.67;;;62.67;;
5710;SDS011;61291;52.524;13.422;2024-02-14T09:01:01;65.20;;;60.10;;
5710;SDS011;61291;52.524;13.422;2024-02-14T09:03:27;67.20;;;60.70;;
5710;SDS011;61291;52.524;13.422;2024-02-14T09:05:52;69.23;;;63.23;;
5710;SDS011;61291;52.524;13.422;2024-02-14T09:08:19;64.17;;;59.20;;
5710;SDS011;61291;52.524;13.422;2024-02-14T09:10:45;62.00;;;56.80;;
5710;SDS011;61291;52.524;13.422;2024-02-14T09:13:11;63.63;;;59.13;;
5710;SDS011;61291;52.524;13.422;2024-02-14T09:15:36;61.23;;;56.83;;
5710;SDS011;61291;52.524;13.422;2024-02-14T09:18:02;67.07;;;61.83;;
5710;SDS011;61291;52.524;13.422;2024-02-14T09:20:28;65.53;;;60.67;;
5710;SDS011;61291;52.524;13.422;2024-02-14T09:22:55;67.43;;;62.43;;
5710;SDS011;61291;52.524;13.422;2024-02-14T09:25:21;67.80;;;62.37;;
5710;SDS011;61291;52.524;13.422;2024-02-14T09:27:48;71.63;;;66.43;;
5710;SDS011;61291;52.524;13.422;2024-02-14T09:30:14;66.67;;;62.07;;
5710;SDS011;61291;52.524;13.422;2024-02-14T09:32:42;69.27;;;64.23;;
5710;SDS011;61291;52.524;13.422;2024-02-14T09:35:08;67.60;;;62.17;;
5710;SDS011;61291;52.524;13.422;2024-02-14T09:37:34;68.80;;;62.63;;
5710;SDS011;61291;52.524;13.422;2024-02-14T09:39:59;64.97;;;60.27;;
5710;SDS011;61291;52.524;13.422;2024-02-14T09:42:28;65.43;;;60.33;;
5710;SDS011;61291;52.524;13.422;2024-02-14T09:44:58;64.23;;;59.80;;
5710;SDS011;61291;52.524;13.422;2024-02-14T09:47:24;68.63;;;62.87;;
5710;SDS011;61291;52.524;13.422;2024-02-14T09:49:54;65.23;;;60.80;;
5710;SDS011;61291;52.524;13.422;2024-02-14T09:52:21;67.83;;;62.83;;
5710;SDS011;61291;52.524;13.422;2024-02-14T09:54:48;68.00;;;62.30;;
5710;SDS011;61291;52.524;13.422;2024-02-14T09:57:14;67.23;;;62.67;;
5710;SDS011;61291;52.524;13.422;2024-02-14T09:59:41;66.17;;;61.07;;
5710;SDS011;61291;52.524;13.422;2024-02-14T10:02:08;67.97;;;62.10;;
5710;SDS011;61291;52.524;13.422;2024-02-14T10:04:35;67.93;;;62.90;;
5710;SDS011;61291;52.524;13.422;2024-02-14T10:07:02;63.23;;;58.83;;
5710;SDS011;61291;52.524;13.422;2024-02-14T10:09:29;63.63;;;59.00;;
5710;SDS011;61291;52.524;13.422;2024-02-14T10:11:55;67.40;;;61.80;;
5710;SDS011;61291;52.524;13.422;2024-02-14T10:14:22;63.97;;;59.33;;
5710;SDS011;61291;52.524;13.422;2024-02-14T10:16:48;63.60;;;58.80;;
5710;SDS011;61291;52.524;13.422;2024-02-14T10:19:17;64.53;;;59.73;;
5710;SDS011;61291;52.524;13.422;2024-02-14T10:21:43;65.23;;;60.40;;
5710;SDS011;61291;52.524;13.422;2024-02-14T10:24:08;68.80;;;63.80;;
5710;SDS011;61291;52.524;13.422;2024-02-14T10:26:35;64.73;;;60.33;;
5710;SDS011;61291;52.524;13.422;2024-02-14T10:29:02;64.70;;;60.30;;
5710;SDS011;61291;52.524;13.422;2024-02-14T10:31:27;64.10;;;59.17;;
5710;SDS011;61291;52.524;13.422;2024-02-14T10:33:56;67.30;;;61.87;;
5710;SDS011;61291;52.524;13.422;2024-02-14T10:36:22;68.90;;;63.23;;
5710;SDS011;61291;52.524;13.422;2024-02-14T10:38:47;66.27;;;61.50;;
5710;SDS011;61291;52.524;13.422;2024-02-14T10:41:15;64.63;;;60.10;;
5710;SDS011;61291;52.524;13.422;2024-02-14T10:43:44;64.60;;;60.20;;
5710;SDS011;61291;52.524;13.422;2024-02-14T10:46:15;63.40;;;58.87;;
5710;SDS011;61291;52.524;13.422;2024-02-14T10:48:46;63.23;;;58.83;;
5710;SDS011;61291;52.524;13.422;2024-02-14T10:51:12;63.97;;;59.77;;
5710;SDS011;61291;52.524;13.422;2024-02-14T10:53:40;66.90;;;61.30;;
5710;SDS011;61291;52.524;13.422;2024-02-14T10:56:10;65.47;;;60.07;;
5710;SDS011;61291;52.524;13.422;2024-02-14T10:58:39;66.77;;;61.90;;
5710;SDS011;61291;52.524;13.422;2024-02-14T11:01:06;68.50;;;62.13;;
5710;SDS011;61291;52.524;13.422;2024-02-14T11:03:34;66.67;;;62.03;;
5710;SDS011;61291;52.524;13.422;2024-02-14T11:06:01;72.57;;;66.43;;
5710;SDS011;61291;52.524;13.422;2024-02-14T11:08:28;68.03;;;63.40;;
5710;SDS011;61291;52.524;13.422;2024-02-14T11:10:58;70.80;;;65.43;;
5710;SDS011;61291;52.524;13.422;2024-02-14T11:13:30;69.10;;;63.93;;
5710;SDS011;61291;52.524;13.422;2024-02-14T11:15:59;72.10;;;66.33;;
5710;SDS011;61291;52.524;13.422;2024-02-14T11:18:26;64.60;;;59.73;;
5710;SDS011;61291;52.524;13.422;2024-02-14T11:20:54;65.50;;;60.80;;
5710;SDS011;61291;52.524;13.422;2024-02-14T11:23:22;62.73;;;58.33;;
5710;SDS011;61291;52.524;13.422;2024-02-14T11:25:48;63.07;;;58.77;;
5710;SDS011;61291;52.524;13.422;2024-02-14T11:30:41;69.03;;;63.87;;
5710;SDS011;61291;52.524;13.422;2024-02-14T11:33:17;63.60;;;59.20;;
5710;SDS011;61291;52.524;13.422;2024-02-14T11:35:48;63.67;;;58.80;;
5710;SDS011;61291;52.524;13.422;2024-02-14T11:38:21;65.40;;;60.87;;
5710;SDS011;61291;52.524;13.422;2024-02-14T11:40:51;66.83;;;60.53;;
5710;SDS011;61291;52.524;13.422;2024-02-14T11:43:19;64.27;;;59.87;;
5710;SDS011;61291;52.524;13.422;2024-02-14T11:45:45;68.17;;;63.27;;
5710;SDS011;61291;52.524;13.422;2024-02-14T11:48:14;68.30;;;63.40;;
5710;SDS011;61291;52.524;13.422;2024-02-14T11:50:41;67.17;;;62.20;;
5710;SDS011;61291;52.524;13.422;2024-02-14T11:53:08;66.90;;;61.97;;
5710;SDS011;61291;52.524;13.422;2024-02-14T11:55:36;69.13;;;64.10;;
5710;SDS011;61291;52.524;13.422;2024-02-14T11:58:06;67.40;;;62.47;;
5710;SDS011;61291;52.524;13.422;2024-02-14T12:00:33;70.03;;;65.17;;
5710;SDS011;61291;52.524;13.422;2024-02-14T12:03:00;67.80;;;61.70;;
5710;SDS011;61291;52.524;13.422;2024-02-14T12:05:26;67.77;;;62.63;;
5710;SDS011;61291;52.524;13.422;2024-02-14T12:07:52;67.93;;;62.80;;
5710;SDS011;61291;52.524;13.422;2024-02-14T12:10:18;68.70;;;63.63;;
5710;SDS011;61291;52.524;13.422;2024-02-14T12:12:46;65.50;;;60.90;;
5710;SDS011;61291;52.524;13.422;2024-02-14T12:15:12;55.40;;;51.43;;
5710;SDS011;61291;52.524;13.422;2024-02-14T12:17:40;69.47;;;64.23;;
5710;SDS011;61291;52.524;13.422;2024-02-14T12:20:09;68.90;;;63.80;;
5710;SDS011;61291;52.524;13.422;2024-02-14T12:22:38;65.83;;;60.63;;
5710;SDS011;61291;52.524;13.422;2024-02-14T12:25:05;68.33;;;61.47;;
5710;SDS011;61291;52.524;13.422;2024-02-14T12:27:32;63.80;;;58.60;;
5710;SDS011;61291;52.524;13.422;2024-02-14T12:29:58;70.87;;;65.50;;
5710;SDS011;61291;52.524;13.422;2024-02-14T12:32:23;67.70;;;62.73;;
5710;SDS011;61291;52.524;13.422;2024-02-14T12:34:49;70.90;;;65.60;;
5710;SDS011;61291;52.524;13.422;2024-02-14T12:37:14;68.87;;;63.40;;
5710;SDS011;61291;52.524;13.422;2024-02-14T12:39:40;65.70;;;60.60;;
5710;SDS011;61291;52.524;13.422;2024-02-14T12:42:05;70.77;;;65.87;;
5710;SDS011;61291;52.524;13.422;2024-02-14T12:44:31;68.27;;;63.20;;
5710;SDS011;61291;52.524;13.422;2024-02-14T12:46:56;67.90;;;63.13;;
5710;SDS011;61291;52.524;13.422;2024-02-14T12:49:22;68.83;;;63.13;;
5710;SDS011;61291;52.524;13.422;2024-02-14T12:51:51;69.10;;;63.50;;
5710;SDS011;61291;52.524;13.422;2024-02-14T12:54:16;69.07;;;63.90;;
5710;SDS011;61291;52.524;13.422;2024-02-14T12:56:42;70.33;;;64.73;;
5710;SDS011;61291;52.524;13.422;2024-02-14T12:59:08;71.63;;;66.03;;
5710;SDS011;61291;52.524;13.422;2024-02-14T13:01:37;68.90;;;64.20;;
5710;SDS011;61291;52.524;13.422;2024-02-14T13:04:02;71.40;;;66.40;;
5710;SDS011;61291;52.524;13.422;2024-02-14T13:06:30;70.43;;;65.37;;
5710;SDS011;61291;52.524;13.422;2024-02-14T13:08:56;71.97;;;66.40;;
5710;SDS011;61291;52.524;13.422;2024-02-14T13:11:21;75.07;;;69.97;;
5710;SDS011;61291;52.524;13.422;2024-02-14T13:13:47;73.20;;;68.00;;
5710;SDS011;61291;52.524;13.422;2024-02-14T13:16:12;73.27;;;67.03;;
5710;SDS011;61291;52.524;13.422;2024-02-14T13:18:38;71.33;;;65.60;;
5710;SDS011;61291;52.524;13.422;2024-02-14T13:21:03;71.33;;;65.70;;
5710;SDS011;61291;52.524;13.422;2024-02-14T13:23:30;59.63;;;55.40;;
5710;SDS011;61291;52.524;13.422;2024-02-14T13:25:55;79.13;;;73.83;;
5710;SDS011;61291;52.524;13.422;2024-02-14T13:28:21;69.40;;;64.60;;
5710;SDS011;61291;52.524;13.422;2024-02-14T13:30:46;78.63;;;73.00;;
5710;SDS011;61291;52.524;13.422;2024-02-14T13:33:13;72.07;;;66.80;;
5710;SDS011;61291;52.524;13.422;2024-02-14T13:35:40;71.90;;;66.63;;
5710;SDS011;61291;52.524;13.422;2024-02-14T13:38:05;74.03;;;68.57;;
5710;SDS011;61291;52.524;13.422;2024-02-14T13:40:31;75.47;;;69.40;;
5710;SDS011;61291;52.524;13.422;2024-02-14T13:42:57;71.10;;;66.00;;
5710;SDS011;61291;52.524;13.422;2024-02-14T13:45:23;74.07;;;68.20;;
5710;SDS011;61291;52.524;13.422;2024-02-14T13:47:48;73.17;;;66.40;;
5710;SDS011;61291;52.524;13.422;2024-02-14T13:50:14;73.20;;;67.47;;
5710;SDS011;61291;52.524;13.422;2024-02-14T13:52:40;70.17;;;64.87;;
5710;SDS011;61291;52.524;13.422;2024-02-14T13:55:05;74.50;;;68.73;;
5710;SDS011;61291;52.524;13.422;2024-02-14T13:57:36;72.07;;;66.67;;
5710;SDS011;61291;52.524;13.422;2024-02-14T14:00:07;71.13;;;66.20;;
5710;SDS011;61291;52.524;13.422;2024-02-14T14:02:36;74.50;;;68.80;;
5710;SDS011;61291;52.524;13.422;2024-02-14T14:05:06;68.17;;;63.27;;
5710;SDS011;61291;52.524;13.422;2024-02-14T14:07:36;69.50;;;64.50;;
5710;SDS011;61291;52.524;13.422;2024-02-14T14:10:03;60.97;;;56.10;;
5710;SDS011;61291;52.524;13.422;2024-02-14T14:12:29;76.67;;;70.67;;
5710;SDS011;61291;52.524;13.422;2024-02-14T14:14:55;74.80;;;67.40;;
5710;SDS011;61291;52.524;13.422;2024-02-14T14:17:20;75.87;;;70.40;;